Terminal Aerodrome Forecast
Issued by NWS

Current Version | Previous Version | Text Only | Print | Product List | Glossary On
Versions: 1 2 3 4 5 6 7 8 9 10 11 12 13 14 15 16 17 18 19 20 21 22 23 24
000 FTUS41 KBOX 290118 AAA TAFACK TAF AMD KACK 290118Z 2901/2924 04017G25KT P6SM OVC006 FM290600 04019G30KT 5SM BR BKN008 FM292100 05021KT P6SM BKN015 FM292300 05020G27KT P6SM BKN015=

USA.gov is the U.S. government's official web portal to all federal, state and local government web resources and services.